sensor_id;sensor_type;location;lat;lon;timestamp;temperature;humidity
67893;DHT22;54688;52.376;16.744;2023-06-14T00:00:14;13.4;65.7
67893;DHT22;54688;52.376;16.744;2023-06-14T00:04:13;13.4;65.6
67893;DHT22;54688;52.376;16.744;2023-06-14T00:07:16;13.5;65.5
67893;DHT22;54688;52.376;16.744;2023-06-14T00:10:18;13.5;65.6
67893;DHT22;54688;52.376;16.744;2023-06-14T00:13:21;13.5;65.8
67893;DHT22;54688;52.376;16.744;2023-06-14T00:16:23;13.5;65.5
67893;DHT22;54688;52.376;16.744;2023-06-14T00:19:26;13.5;66.1
67893;DHT22;54688;52.376;16.744;2023-06-14T00:22:30;13.6;66.2
67893;DHT22;54688;52.376;16.744;2023-06-14T00:25:31;13.6;66.4
67893;DHT22;54688;52.376;16.744;2023-06-14T00:28:34;13.5;66.3
67893;DHT22;54688;52.376;16.744;2023-06-14T00:31:36;13.5;66.3
67893;DHT22;54688;52.376;16.744;2023-06-14T00:34:39;13.6;66.3
67893;DHT22;54688;52.376;16.744;2023-06-14T00:37:42;13.6;66.3
67893;DHT22;54688;52.376;16.744;2023-06-14T00:40:45;13.5;66.1
67893;DHT22;54688;52.376;16.744;2023-06-14T00:43:47;13.6;66.3
67893;DHT22;54688;52.376;16.744;2023-06-14T00:46:49;13.6;66.3
67893;DHT22;54688;52.376;16.744;2023-06-14T00:49:51;13.6;66
67893;DHT22;54688;52.376;16.744;2023-06-14T00:52:55;13.6;66.7
67893;DHT22;54688;52.376;16.744;2023-06-14T00:55:57;13.6;67
67893;DHT22;54688;52.376;16.744;2023-06-14T00:58:59;13.6;67.6
67893;DHT22;54688;52.376;16.744;2023-06-14T01:02:02;13.6;68.1
67893;DHT22;54688;52.376;16.744;2023-06-14T01:05:04;13.6;68.4
67893;DHT22;54688;52.376;16.744;2023-06-14T01:08:13;13.6;68.8
67893;DHT22;54688;52.376;16.744;2023-06-14T01:11:28;13.6;68.9
67893;DHT22;54688;52.376;16.744;2023-06-14T01:14:34;13.6;69
67893;DHT22;54688;52.376;16.744;2023-06-14T01:17:36;13.5;69.1
67893;DHT22;54688;52.376;16.744;2023-06-14T01:20:40;13.6;69.2
67893;DHT22;54688;52.376;16.744;2023-06-14T01:23:42;13.5;69.6
67893;DHT22;54688;52.376;16.744;2023-06-14T01:26:44;13.5;70.6
67893;DHT22;54688;52.376;16.744;2023-06-14T01:29:48;13.5;71.4
67893;DHT22;54688;52.376;16.744;2023-06-14T01:32:51;13.5;71.9
67893;DHT22;54688;52.376;16.744;2023-06-14T01:35:55;13.4;72.4
67893;DHT22;54688;52.376;16.744;2023-06-14T01:38:58;13.4;72.8
67893;DHT22;54688;52.376;16.744;2023-06-14T01:42:01;13.4;73
67893;DHT22;54688;52.376;16.744;2023-06-14T01:45:04;13.3;72.9
67893;DHT22;54688;52.376;16.744;2023-06-14T01:48:07;13.3;73
67893;DHT22;54688;52.376;16.744;2023-06-14T01:51:10;13.2;73.1
67893;DHT22;54688;52.376;16.744;2023-06-14T01:54:13;13.2;73.2
67893;DHT22;54688;52.376;16.744;2023-06-14T01:57:15;13.2;73.5
67893;DHT22;54688;52.376;16.744;2023-06-14T02:00:17;13.2;73.6
67893;DHT22;54688;52.376;16.744;2023-06-14T02:03:20;13.1;73.6
67893;DHT22;54688;52.376;16.744;2023-06-14T02:06:24;13.1;73.6
67893;DHT22;54688;52.376;16.744;2023-06-14T02:09:28;13;73.4
67893;DHT22;54688;52.376;16.744;2023-06-14T02:15:28;12.9;73.6
67893;DHT22;54688;52.376;16.744;2023-06-14T02:18:30;12.9;73.5
67893;DHT22;54688;52.376;16.744;2023-06-14T02:21:39;12.9;73.6
67893;DHT22;54688;52.376;16.744;2023-06-14T02:24:41;12.9;73.7
67893;DHT22;54688;52.376;16.744;2023-06-14T02:27:44;12.9;73.6
67893;DHT22;54688;52.376;16.744;2023-06-14T02:30:46;12.9;73.7
67893;DHT22;54688;52.376;16.744;2023-06-14T02:36:48;12.9;73.7
67893;DHT22;54688;52.376;16.744;2023-06-14T02:39:50;12.9;73.7
67893;DHT22;54688;52.376;16.744;2023-06-14T02:42:53;12.9;73.8
67893;DHT22;54688;52.376;16.744;2023-06-14T02:45:56;12.9;73.7
67893;DHT22;54688;52.376;16.744;2023-06-14T02:48:58;12.9;73.6
67893;DHT22;54688;52.376;16.744;2023-06-14T02:52:00;12.9;74.1
67893;DHT22;54688;52.376;16.744;2023-06-14T02:55:04;12.9;73.3
67893;DHT22;54688;52.376;16.744;2023-06-14T02:58:06;12.9;73.3
67893;DHT22;54688;52.376;16.744;2023-06-14T03:01:09;12.9;73.6
67893;DHT22;54688;52.376;16.744;2023-06-14T03:04:11;12.9;73.6
67893;DHT22;54688;52.376;16.744;2023-06-14T03:07:13;12.8;74.1
67893;DHT22;54688;52.376;16.744;2023-06-14T03:10:16;12.8;74.1
67893;DHT22;54688;52.376;16.744;2023-06-14T03:13:18;12.8;74.6
67893;DHT22;54688;52.376;16.744;2023-06-14T03:16:21;12.8;75.1
67893;DHT22;54688;52.376;16.744;2023-06-14T03:19:24;12.7;75.4
67893;DHT22;54688;52.376;16.744;2023-06-14T03:22:26;12.7;75.8
67893;DHT22;54688;52.376;16.744;2023-06-14T03:25:28;12.7;75.9
67893;DHT22;54688;52.376;16.744;2023-06-14T03:28:30;12.7;75.8
67893;DHT22;54688;52.376;16.744;2023-06-14T03:31:32;12.7;75.7
67893;DHT22;54688;52.376;16.744;2023-06-14T03:34:34;12.7;75.6
67893;DHT22;54688;52.376;16.744;2023-06-14T03:37:36;12.7;75.7
67893;DHT22;54688;52.376;16.744;2023-06-14T03:40:38;12.7;75.7
67893;DHT22;54688;52.376;16.744;2023-06-14T03:43:40;12.6;75.7
67893;DHT22;54688;52.376;16.744;2023-06-14T03:46:42;12.7;75.9
67893;DHT22;54688;52.376;16.744;2023-06-14T03:49:44;12.6;75.8
67893;DHT22;54688;52.376;16.744;2023-06-14T03:52:47;12.7;75.8
67893;DHT22;54688;52.376;16.744;2023-06-14T03:55:49;12.7;75.6
67893;DHT22;54688;52.376;16.744;2023-06-14T03:58:51;12.7;75.5
67893;DHT22;54688;52.376;16.744;2023-06-14T04:01:53;12.8;75.5
67893;DHT22;54688;52.376;16.744;2023-06-14T04:04:56;12.8;75.2
67893;DHT22;54688;52.376;16.744;2023-06-14T04:07:57;12.8;75
67893;DHT22;54688;52.376;16.744;2023-06-14T04:10:59;12.8;74.9
67893;DHT22;54688;52.376;16.744;2023-06-14T04:14:01;12.9;74.8
67893;DHT22;54688;52.376;16.744;2023-06-14T04:17:04;12.9;74.8
67893;DHT22;54688;52.376;16.744;2023-06-14T04:20:07;12.9;74.4
67893;DHT22;54688;52.376;16.744;2023-06-14T04:23:11;12.9;74.1
67893;DHT22;54688;52.376;16.744;2023-06-14T04:26:13;13;74.1
67893;DHT22;54688;52.376;16.744;2023-06-14T04:29:16;12.9;73.9
67893;DHT22;54688;52.376;16.744;2023-06-14T04:32:18;13;73.9
67893;DHT22;54688;52.376;16.744;2023-06-14T04:35:20;13;73.6
67893;DHT22;54688;52.376;16.744;2023-06-14T04:38:23;13.1;73.5
67893;DHT22;54688;52.376;16.744;2023-06-14T04:41:25;13.1;73.4
67893;DHT22;54688;52.376;16.744;2023-06-14T04:44:27;13.1;73.2
67893;DHT22;54688;52.376;16.744;2023-06-14T04:47:28;13.1;73.2
67893;DHT22;54688;52.376;16.744;2023-06-14T04:50:31;13.2;73.1
67893;DHT22;54688;52.376;16.744;2023-06-14T04:53:33;13.2;73
67893;DHT22;54688;52.376;16.744;2023-06-14T04:56:34;13.2;72.8
67893;DHT22;54688;52.376;16.744;2023-06-14T04:59:36;13.2;72.9
67893;DHT22;54688;52.376;16.744;2023-06-14T05:02:38;13.3;72.9
67893;DHT22;54688;52.376;16.744;2023-06-14T05:05:40;13.3;72.7
67893;DHT22;54688;52.376;16.744;2023-06-14T05:08:43;13.4;72.6
67893;DHT22;54688;52.376;16.744;2023-06-14T05:11:45;13.4;73
67893;DHT22;54688;52.376;16.744;2023-06-14T05:14:47;13.4;73.1
67893;DHT22;54688;52.376;16.744;2023-06-14T05:17:49;13.4;73
67893;DHT22;54688;52.376;16.744;2023-06-14T05:20:50;13.5;73.1
67893;DHT22;54688;52.376;16.744;2023-06-14T05:23:52;13.5;73.7
67893;DHT22;54688;52.376;16.744;2023-06-14T05:26:54;13.6;73.7
67893;DHT22;54688;52.376;16.744;2023-06-14T05:29:56;13.6;73.6
67893;DHT22;54688;52.376;16.744;2023-06-14T05:32:58;13.7;73.4
67893;DHT22;54688;52.376;16.744;2023-06-14T05:35:59;13.7;73.4
67893;DHT22;54688;52.376;16.744;2023-06-14T05:39:01;13.8;73.4
67893;DHT22;54688;52.376;16.744;2023-06-14T05:42:04;13.9;73.1
67893;DHT22;54688;52.376;16.744;2023-06-14T05:45:07;13.9;72.9
67893;DHT22;54688;52.376;16.744;2023-06-14T05:48:10;14;72.2
67893;DHT22;54688;52.376;16.744;2023-06-14T05:51:12;14.1;71.8
67893;DHT22;54688;52.376;16.744;2023-06-14T05:54:13;14.2;70.8
67893;DHT22;54688;52.376;16.744;2023-06-14T05:57:15;14.3;70.3
67893;DHT22;54688;52.376;16.744;2023-06-14T06:00:18;14.3;69.9
67893;DHT22;54688;52.376;16.744;2023-06-14T06:03:20;14.3;69
67893;DHT22;54688;52.376;16.744;2023-06-14T06:06:23;14.4;68.8
67893;DHT22;54688;52.376;16.744;2023-06-14T06:09:25;14.4;68.4
67893;DHT22;54688;52.376;16.744;2023-06-14T06:12:27;14.5;68.3
67893;DHT22;54688;52.376;16.744;2023-06-14T06:15:29;14.6;67.5
67893;DHT22;54688;52.376;16.744;2023-06-14T06:18:31;14.6;67.2
67893;DHT22;54688;52.376;16.744;2023-06-14T06:21:33;14.7;67.6
67893;DHT22;54688;52.376;16.744;2023-06-14T06:24:35;14.7;69.4
67893;DHT22;54688;52.376;16.744;2023-06-14T06:27:38;14.7;70
67893;DHT22;54688;52.376;16.744;2023-06-14T06:30:39;14.7;70.1
67893;DHT22;54688;52.376;16.744;2023-06-14T06:33:42;14.7;70.4
67893;DHT22;54688;52.376;16.744;2023-06-14T06:36:44;14.7;70.4
67893;DHT22;54688;52.376;16.744;2023-06-14T06:39:46;14.8;70.5
67893;DHT22;54688;52.376;16.744;2023-06-14T06:42:48;14.8;70.3
67893;DHT22;54688;52.376;16.744;2023-06-14T06:45:50;14.8;69.9
67893;DHT22;54688;52.376;16.744;2023-06-14T06:48:52;14.8;70.1
67893;DHT22;54688;52.376;16.744;2023-06-14T06:52:00;14.9;70.4
67893;DHT22;54688;52.376;16.744;2023-06-14T06:55:03;14.9;69.8
67893;DHT22;54688;52.376;16.744;2023-06-14T06:58:06;14.9;69.6
67893;DHT22;54688;52.376;16.744;2023-06-14T07:01:08;15;69.4
67893;DHT22;54688;52.376;16.744;2023-06-14T07:04:11;15;69
67893;DHT22;54688;52.376;16.744;2023-06-14T07:07:13;15.1;68.4
67893;DHT22;54688;52.376;16.744;2023-06-14T07:10:15;15.2;68.2
67893;DHT22;54688;52.376;16.744;2023-06-14T07:13:17;15.2;68.3
67893;DHT22;54688;52.376;16.744;2023-06-14T07:16:18;15.3;67.6
67893;DHT22;54688;52.376;16.744;2023-06-14T07:19:20;15.4;67.1
67893;DHT22;54688;52.376;16.744;2023-06-14T07:22:23;15.5;66.5
67893;DHT22;54688;52.376;16.744;2023-06-14T07:25:24;15.5;66.5
67893;DHT22;54688;52.376;16.744;2023-06-14T07:28:27;15.6;67.6
67893;DHT22;54688;52.376;16.744;2023-06-14T07:31:29;15.6;68
67893;DHT22;54688;52.376;16.744;2023-06-14T07:34:32;15.7;69.3
67893;DHT22;54688;52.376;16.744;2023-06-14T07:37:34;15.7;69.6
67893;DHT22;54688;52.376;16.744;2023-06-14T07:40:35;15.6;70.4
67893;DHT22;54688;52.376;16.744;2023-06-14T07:43:38;15.5;71.4
67893;DHT22;54688;52.376;16.744;2023-06-14T07:46:40;15.6;72
67893;DHT22;54688;52.376;16.744;2023-06-14T07:49:42;15.5;72.3
67893;DHT22;54688;52.376;16.744;2023-06-14T07:52:45;15.5;72.7
67893;DHT22;54688;52.376;16.744;2023-06-14T07:55:48;15.6;73.1
67893;DHT22;54688;52.376;16.744;2023-06-14T07:58:50;15.6;72.1
67893;DHT22;54688;52.376;16.744;2023-06-14T08:01:52;15.6;72.5
67893;DHT22;54688;52.376;16.744;2023-06-14T08:04:53;15.6;72.9
67893;DHT22;54688;52.376;16.744;2023-06-14T08:07:55;15.6;73
67893;DHT22;54688;52.376;16.744;2023-06-14T08:10:57;15.7;72.6
67893;DHT22;54688;52.376;16.744;2023-06-14T08:13:58;15.7;72.3
67893;DHT22;54688;52.376;16.744;2023-06-14T08:17:00;15.8;72.4
67893;DHT22;54688;52.376;16.744;2023-06-14T08:20:03;15.8;70.9
67893;DHT22;54688;52.376;16.744;2023-06-14T08:23:06;15.8;71.2
67893;DHT22;54688;52.376;16.744;2023-06-14T08:26:08;15.8;71.3
67893;DHT22;54688;52.376;16.744;2023-06-14T08:29:10;15.9;72.5
67893;DHT22;54688;52.376;16.744;2023-06-14T08:32:12;15.9;71.7
67893;DHT22;54688;52.376;16.744;2023-06-14T08:35:14;15.9;70.3
67893;DHT22;54688;52.376;16.744;2023-06-14T08:38:17;15.8;68.9
67893;DHT22;54688;52.376;16.744;2023-06-14T08:41:20;15.8;70.5
67893;DHT22;54688;52.376;16.744;2023-06-14T08:44:23;15.8;72.4
67893;DHT22;54688;52.376;16.744;2023-06-14T08:47:26;15.8;72
67893;DHT22;54688;52.376;16.744;2023-06-14T08:50:28;15.9;71.7
67893;DHT22;54688;52.376;16.744;2023-06-14T08:53:31;16;71.4
67893;DHT22;54688;52.376;16.744;2023-06-14T08:56:34;16.1;71.5
67893;DHT22;54688;52.376;16.744;2023-06-14T08:59:39;16.2;70.9
67893;DHT22;54688;52.376;16.744;2023-06-14T09:02:48;16.4;71
67893;DHT22;54688;52.376;16.744;2023-06-14T09:05:51;16.7;68.8
67893;DHT22;54688;52.376;16.744;2023-06-14T09:08:54;16.9;67.3
67893;DHT22;54688;52.376;16.744;2023-06-14T09:11:57;17.1;67.2
67893;DHT22;54688;52.376;16.744;2023-06-14T09:14:58;17.3;66.1
67893;DHT22;54688;52.376;16.744;2023-06-14T09:18:01;17.5;63.8
67893;DHT22;54688;52.376;16.744;2023-06-14T09:21:05;17.7;66.9
67893;DHT22;54688;52.376;16.744;2023-06-14T09:24:12;18;65.3
67893;DHT22;54688;52.376;16.744;2023-06-14T09:27:15;18.3;63.1
67893;DHT22;54688;52.376;16.744;2023-06-14T09:30:19;18.5;61.2
67893;DHT22;54688;52.376;16.744;2023-06-14T09:33:22;18.6;59.7
67893;DHT22;54688;52.376;16.744;2023-06-14T09:36:24;18.7;57.3
67893;DHT22;54688;52.376;16.744;2023-06-14T09:39:27;18.7;60
67893;DHT22;54688;52.376;16.744;2023-06-14T09:42:29;18.7;54.8
67893;DHT22;54688;52.376;16.744;2023-06-14T09:45:32;18.8;56.4
67893;DHT22;54688;52.376;16.744;2023-06-14T09:48:35;19;57.9
67893;DHT22;54688;52.376;16.744;2023-06-14T09:51:37;19.1;54.5
67893;DHT22;54688;52.376;16.744;2023-06-14T09:54:46;19.2;54.2
67893;DHT22;54688;52.376;16.744;2023-06-14T09:57:48;19.3;56
67893;DHT22;54688;52.376;16.744;2023-06-14T10:00:52;19.4;56
67893;DHT22;54688;52.376;16.744;2023-06-14T10:03:58;19.6;54.9
67893;DHT22;54688;52.376;16.744;2023-06-14T10:07:03;19.6;52.9
67893;DHT22;54688;52.376;16.744;2023-06-14T10:10:07;19.6;53.5
67893;DHT22;54688;52.376;16.744;2023-06-14T10:13:10;19.7;53.2
67893;DHT22;54688;52.376;16.744;2023-06-14T10:16:15;19.7;48.7
67893;DHT22;54688;52.376;16.744;2023-06-14T10:19:22;19.7;50.5
67893;DHT22;54688;52.376;16.744;2023-06-14T10:22:29;19.6;48.1
67893;DHT22;54688;52.376;16.744;2023-06-14T10:25:36;19.6;50
67893;DHT22;54688;52.376;16.744;2023-06-14T10:28:37;19.7;48.5
67893;DHT22;54688;52.376;16.744;2023-06-14T10:31:40;19.7;48.8
67893;DHT22;54688;52.376;16.744;2023-06-14T10:34:43;19.8;48.9
67893;DHT22;54688;52.376;16.744;2023-06-14T10:37:46;19.9;50.4
67893;DHT22;54688;52.376;16.744;2023-06-14T10:40:51;20.1;47.8
67893;DHT22;54688;52.376;16.744;2023-06-14T10:44:58;20.2;47.9
67893;DHT22;54688;52.376;16.744;2023-06-14T10:48:01;20.4;48.7
67893;DHT22;54688;52.376;16.744;2023-06-14T10:51:03;20.9;48
67893;DHT22;54688;52.376;16.744;2023-06-14T10:54:06;21.2;45.9
67893;DHT22;54688;52.376;16.744;2023-06-14T10:57:13;21.6;46.3
67893;DHT22;54688;52.376;16.744;2023-06-14T11:00:16;21.9;44.8
67893;DHT22;54688;52.376;16.744;2023-06-14T11:03:29;22;44
67893;DHT22;54688;52.376;16.744;2023-06-14T11:06:46;22.2;43.8
67893;DHT22;54688;52.376;16.744;2023-06-14T11:09:51;22.5;40.4
67893;DHT22;54688;52.376;16.744;2023-06-14T11:13:07;22.4;39.8
67893;DHT22;54688;52.376;16.744;2023-06-14T11:16:10;22.3;41.1
67893;DHT22;54688;52.376;16.744;2023-06-14T11:19:13;22.3;40.8
67893;DHT22;54688;52.376;16.744;2023-06-14T11:22:14;22.1;41.2
67893;DHT22;54688;52.376;16.744;2023-06-14T11:25:16;22;40.9
67893;DHT22;54688;52.376;16.744;2023-06-14T11:28:18;21.8;41.5
67893;DHT22;54688;52.376;16.744;2023-06-14T11:31:21;21.7;40.8
67893;DHT22;54688;52.376;16.744;2023-06-14T11:34:24;21.6;40.9
67893;DHT22;54688;52.376;16.744;2023-06-14T11:37:26;21.4;43.7
67893;DHT22;54688;52.376;16.744;2023-06-14T11:40:29;21.5;43.5
67893;DHT22;54688;52.376;16.744;2023-06-14T11:43:31;21.7;42
67893;DHT22;54688;52.376;16.744;2023-06-14T11:46:33;21.8;40.7
67893;DHT22;54688;52.376;16.744;2023-06-14T11:49:36;21.9;40.9
67893;DHT22;54688;52.376;16.744;2023-06-14T11:52:38;22;39.4
67893;DHT22;54688;52.376;16.744;2023-06-14T11:55:39;22;40.2
67893;DHT22;54688;52.376;16.744;2023-06-14T11:58:42;22;39.3
67893;DHT22;54688;52.376;16.744;2023-06-14T12:01:44;22;39.6
67893;DHT22;54688;52.376;16.744;2023-06-14T12:04:47;22;39.9
67893;DHT22;54688;52.376;16.744;2023-06-14T12:07:49;22.2;42.2
67893;DHT22;54688;52.376;16.744;2023-06-14T12:10:51;22.4;39.7
67893;DHT22;54688;52.376;16.744;2023-06-14T12:13:54;22.7;38.9
67893;DHT22;54688;52.376;16.744;2023-06-14T12:17:03;23.1;38.3
67893;DHT22;54688;52.376;16.744;2023-06-14T12:20:06;23.5;36.6
67893;DHT22;54688;52.376;16.744;2023-06-14T12:23:08;23.8;36.1
67893;DHT22;54688;52.376;16.744;2023-06-14T12:26:12;23.8;35.9
67893;DHT22;54688;52.376;16.744;2023-06-14T12:29:15;23.8;36
67893;DHT22;54688;52.376;16.744;2023-06-14T12:32:17;23.6;35.9
67893;DHT22;54688;52.376;16.744;2023-06-14T12:35:20;23.5;36.4
67893;DHT22;54688;52.376;16.744;2023-06-14T12:38:22;23.3;35.5
67893;DHT22;54688;52.376;16.744;2023-06-14T12:44:24;23;36.1
67893;DHT22;54688;52.376;16.744;2023-06-14T12:47:27;22.8;36.3
67893;DHT22;54688;52.376;16.744;2023-06-14T12:50:29;22.7;36.9
67893;DHT22;54688;52.376;16.744;2023-06-14T12:53:31;22.6;37.6
67893;DHT22;54688;52.376;16.744;2023-06-14T12:56:33;22.5;37.2
67893;DHT22;54688;52.376;16.744;2023-06-14T12:59:36;22.5;37.8
67893;DHT22;54688;52.376;16.744;2023-06-14T13:02:38;22.4;38
67893;DHT22;54688;52.376;16.744;2023-06-14T13:05:41;22.4;38.3
67893;DHT22;54688;52.376;16.744;2023-06-14T13:08:43;22.4;38.1
67893;DHT22;54688;52.376;16.744;2023-06-14T13:11:46;22.5;38.1
67893;DHT22;54688;52.376;16.744;2023-06-14T13:14:48;22.7;38
67893;DHT22;54688;52.376;16.744;2023-06-14T13:17:51;22.7;36.7
67893;DHT22;54688;52.376;16.744;2023-06-14T13:20:53;22.9;36.9
67893;DHT22;54688;52.376;16.744;2023-06-14T13:23:56;23.1;37.2
67893;DHT22;54688;52.376;16.744;2023-06-14T13:26:58;23.3;37.4
67893;DHT22;54688;52.376;16.744;2023-06-14T13:30:03;23.4;37.1
67893;DHT22;54688;52.376;16.744;2023-06-14T13:33:06;23.6;36.3
67893;DHT22;54688;52.376;16.744;2023-06-14T13:36:08;23.7;36.3
67893;DHT22;54688;52.376;16.744;2023-06-14T13:39:10;23.7;36
67893;DHT22;54688;52.376;16.744;2023-06-14T13:42:13;23.8;35.9
67893;DHT22;54688;52.376;16.744;2023-06-14T13:45:16;23.8;35.9
67893;DHT22;54688;52.376;16.744;2023-06-14T13:48:18;23.8;35.9
67893;DHT22;54688;52.376;16.744;2023-06-14T13:51:21;23.9;35.8
67893;DHT22;54688;52.376;16.744;2023-06-14T13:54:23;23.9;35
67893;DHT22;54688;52.376;16.744;2023-06-14T13:57:25;23.9;34.1
67893;DHT22;54688;52.376;16.744;2023-06-14T14:00:27;24;35.4
67893;DHT22;54688;52.376;16.744;2023-06-14T14:03:30;24;35.6
67893;DHT22;54688;52.376;16.744;2023-06-14T14:06:32;24.1;35.1
67893;DHT22;54688;52.376;16.744;2023-06-14T14:09:35;24.4;34.7
67893;DHT22;54688;52.376;16.744;2023-06-14T14:12:37;24.6;34.2
67893;DHT22;54688;52.376;16.744;2023-06-14T14:15:39;24.9;34.9
67893;DHT22;54688;52.376;16.744;2023-06-14T14:18:41;25.3;33.6
67893;DHT22;54688;52.376;16.744;2023-06-14T14:21:43;25.8;33
67893;DHT22;54688;52.376;16.744;2023-06-14T14:24:46;26.5;31.3
67893;DHT22;54688;52.376;16.744;2023-06-14T14:27:48;27.4;29.9
67893;DHT22;54688;52.376;16.744;2023-06-14T14:30:51;28.2;29
67893;DHT22;54688;52.376;16.744;2023-06-14T14:33:54;29;27.8
67893;DHT22;54688;52.376;16.744;2023-06-14T14:36:56;29.8;26.9
67893;DHT22;54688;52.376;16.744;2023-06-14T14:39:59;30.3;26.1
67893;DHT22;54688;52.376;16.744;2023-06-14T14:43:02;30.6;25.9
67893;DHT22;54688;52.376;16.744;2023-06-14T14:46:04;30.7;25.6
67893;DHT22;54688;52.376;16.744;2023-06-14T14:49:06;30.5;25.5
67893;DHT22;54688;52.376;16.744;2023-06-14T14:52:09;30.2;25.8
67893;DHT22;54688;52.376;16.744;2023-06-14T14:55:13;29.8;26.3
67893;DHT22;54688;52.376;16.744;2023-06-14T14:58:15;29.3;26.6
67893;DHT22;54688;52.376;16.744;2023-06-14T15:01:17;28.9;27.3
67893;DHT22;54688;52.376;16.744;2023-06-14T15:04:19;28.5;27.7
67893;DHT22;54688;52.376;16.744;2023-06-14T15:07:22;28;27.7
67893;DHT22;54688;52.376;16.744;2023-06-14T15:10:24;27.7;28.3
67893;DHT22;54688;52.376;16.744;2023-06-14T15:13:26;27.4;28.5
67893;DHT22;54688;52.376;16.744;2023-06-14T15:16:29;27.1;28.6
67893;DHT22;54688;52.376;16.744;2023-06-14T15:19:31;27;28.4
67893;DHT22;54688;52.376;16.744;2023-06-14T15:22:34;26.9;28.6
67893;DHT22;54688;52.376;16.744;2023-06-14T15:25:36;26.8;28.3
67893;DHT22;54688;52.376;16.744;2023-06-14T15:28:39;26.7;27.9
67893;DHT22;54688;52.376;16.744;2023-06-14T15:31:41;26.6;28.3
67893;DHT22;54688;52.376;16.744;2023-06-14T15:34:43;26.4;28.2
67893;DHT22;54688;52.376;16.744;2023-06-14T15:37:46;26.4;28.4
67893;DHT22;54688;52.376;16.744;2023-06-14T15:40:51;26.2;28.3
67893;DHT22;54688;52.376;16.744;2023-06-14T15:43:53;26.1;28.5
67893;DHT22;54688;52.376;16.744;2023-06-14T15:46:56;25.9;29
67893;DHT22;54688;52.376;16.744;2023-06-14T15:49:58;25.7;29.2
67893;DHT22;54688;52.376;16.744;2023-06-14T15:52:59;25.6;29.6
67893;DHT22;54688;52.376;16.744;2023-06-14T15:56:02;25.4;30
67893;DHT22;54688;52.376;16.744;2023-06-14T15:59:05;25.2;30
67893;DHT22;54688;52.376;16.744;2023-06-14T16:02:07;25.1;30.3
67893;DHT22;54688;52.376;16.744;2023-06-14T16:05:11;24.9;30
67893;DHT22;54688;52.376;16.744;2023-06-14T16:08:13;24.6;29.8
67893;DHT22;54688;52.376;16.744;2023-06-14T16:14:15;24.2;30.9
67893;DHT22;54688;52.376;16.744;2023-06-14T16:17:18;24.1;31.5
67893;DHT22;54688;52.376;16.744;2023-06-14T16:20:20;24;31.9
67893;DHT22;54688;52.376;16.744;2023-06-14T16:23:23;23.8;31.7
67893;DHT22;54688;52.376;16.744;2023-06-14T16:29:25;23.5;31.2
67893;DHT22;54688;52.376;16.744;2023-06-14T16:32:27;23.3;31.2
67893;DHT22;54688;52.376;16.744;2023-06-14T16:35:29;23.1;30.4
67893;DHT22;54688;52.376;16.744;2023-06-14T16:38:31;22.9;30.6
67893;DHT22;54688;52.376;16.744;2023-06-14T16:41:32;22.8;31
67893;DHT22;54688;52.376;16.744;2023-06-14T16:44:35;22.6;31.5
67893;DHT22;54688;52.376;16.744;2023-06-14T16:47:36;22.5;32.6
67893;DHT22;54688;52.376;16.744;2023-06-14T16:50:39;22.3;32.9
67893;DHT22;54688;52.376;16.744;2023-06-14T16:53:40;22.2;32.9
67893;DHT22;54688;52.376;16.744;2023-06-14T16:56:43;22.1;34.2
67893;DHT22;54688;52.376;16.744;2023-06-14T16:59:45;22;34.6
67893;DHT22;54688;52.376;16.744;2023-06-14T17:02:48;22;34.9
67893;DHT22;54688;52.376;16.744;2023-06-14T17:05:54;21.9;35.5
67893;DHT22;54688;52.376;16.744;2023-06-14T17:08:56;21.8;35.8
67893;DHT22;54688;52.376;16.744;2023-06-14T17:11:59;21.7;36.3
67893;DHT22;54688;52.376;16.744;2023-06-14T17:15:02;21.6;36.3
67893;DHT22;54688;52.376;16.744;2023-06-14T17:18:06;21.5;36.7
67893;DHT22;54688;52.376;16.744;2023-06-14T17:21:08;21.5;37.1
67893;DHT22;54688;52.376;16.744;2023-06-14T17:24:10;21.3;37.1
67893;DHT22;54688;52.376;16.744;2023-06-14T17:27:12;21.2;36.8
67893;DHT22;54688;52.376;16.744;2023-06-14T17:30:14;21.1;36.2
67893;DHT22;54688;52.376;16.744;2023-06-14T17:33:16;21;37.3
67893;DHT22;54688;52.376;16.744;2023-06-14T17:36:19;20.9;37.9
67893;DHT22;54688;52.376;16.744;2023-06-14T17:39:20;20.9;37.7
67893;DHT22;54688;52.376;16.744;2023-06-14T17:42:23;20.8;37.2
67893;DHT22;54688;52.376;16.744;2023-06-14T17:45:25;20.7;36.9
67893;DHT22;54688;52.376;16.744;2023-06-14T17:48:28;20.6;37.1
67893;DHT22;54688;52.376;16.744;2023-06-14T17:51:29;20.5;36.1
67893;DHT22;54688;52.376;16.744;2023-06-14T17:54:32;20.5;37
67893;DHT22;54688;52.376;16.744;2023-06-14T17:57:35;20.4;37.2
67893;DHT22;54688;52.376;16.744;2023-06-14T18:00:37;20.3;37
67893;DHT22;54688;52.376;16.744;2023-06-14T18:03:39;20.3;38.1
67893;DHT22;54688;52.376;16.744;2023-06-14T18:06:41;20.2;38.3
67893;DHT22;54688;52.376;16.744;2023-06-14T18:09:43;20.2;38.6
67893;DHT22;54688;52.376;16.744;2023-06-14T18:12:44;20.1;38.8
67893;DHT22;54688;52.376;16.744;2023-06-14T18:15:46;20;39.5
67893;DHT22;54688;52.376;16.744;2023-06-14T18:18:48;20.1;39.4
67893;DHT22;54688;52.376;16.744;2023-06-14T18:21:49;20;39.7
67893;DHT22;54688;52.376;16.744;2023-06-14T18:24:51;19.9;39.6
67893;DHT22;54688;52.376;16.744;2023-06-14T18:27:53;19.8;39.5
67893;DHT22;54688;52.376;16.744;2023-06-14T18:30:55;19.8;39.9
67893;DHT22;54688;52.376;16.744;2023-06-14T18:33:58;19.7;40.3
67893;DHT22;54688;52.376;16.744;2023-06-14T18:36:59;19.7;40.4
67893;DHT22;54688;52.376;16.744;2023-06-14T18:40:02;19.6;40
67893;DHT22;54688;52.376;16.744;2023-06-14T18:43:05;19.6;39.6
67893;DHT22;54688;52.376;16.744;2023-06-14T18:46:08;19.5;40.5
67893;DHT22;54688;52.376;16.744;2023-06-14T18:49:10;19.5;40.7
67893;DHT22;54688;52.376;16.744;2023-06-14T18:52:14;19.5;40.5
67893;DHT22;54688;52.376;16.744;2023-06-14T18:55:17;19.3;41.1
67893;DHT22;54688;52.376;16.744;2023-06-14T18:58:19;19.3;41.7
67893;DHT22;54688;52.376;16.744;2023-06-14T19:01:21;19.3;41.9
67893;DHT22;54688;52.376;16.744;2023-06-14T19:04:24;19.2;41.7
67893;DHT22;54688;52.376;16.744;2023-06-14T19:07:26;19.1;42.2
67893;DHT22;54688;52.376;16.744;2023-06-14T19:10:29;19.1;42
67893;DHT22;54688;52.376;16.744;2023-06-14T19:13:31;19;42.3
67893;DHT22;54688;52.376;16.744;2023-06-14T19:16:34;18.9;42.8
67893;DHT22;54688;52.376;16.744;2023-06-14T19:19:37;18.9;43.1
67893;DHT22;54688;52.376;16.744;2023-06-14T19:22:39;18.9;43.2
67893;DHT22;54688;52.376;16.744;2023-06-14T19:25:42;18.8;43.6
67893;DHT22;54688;52.376;16.744;2023-06-14T19:28:44;18.7;43.9
67893;DHT22;54688;52.376;16.744;2023-06-14T19:31:47;18.6;43.9
67893;DHT22;54688;52.376;16.744;2023-06-14T19:34:50;18.6;44.7
67893;DHT22;54688;52.376;16.744;2023-06-14T19:37:53;18.5;45.8
67893;DHT22;54688;52.376;16.744;2023-06-14T19:40:55;18.5;45.2
67893;DHT22;54688;52.376;16.744;2023-06-14T19:43:58;18.5;45.6
67893;DHT22;54688;52.376;16.744;2023-06-14T19:47:00;18.4;45.6
67893;DHT22;54688;52.376;16.744;2023-06-14T19:50:03;18.4;46.4
67893;DHT22;54688;52.376;16.744;2023-06-14T19:53:06;18.3;45.9
67893;DHT22;54688;52.376;16.744;2023-06-14T19:56:09;18.2;45.9